Time;durP1;ratioP1;P1;durP2;ratioP2;P2;SDS_P1;SDS_P2;PMS_P1;PMS_P2;Temp;Humidity;BMP_temperature;BMP_pressure;BME280_temperature;BME280_humidity;BME280_pressure;Samples;Min_cycle;Max_cycle;Signal;HPM_P1;HPM_P2
2023/06/12 00:00:52;;;;;;;10.07;7.87;;;19.60;63.70;;;;;;5087946;28;20532;-83
2023/06/12 00:03:23;;;;;;;12.40;8.20;;;19.70;63.70;;;;;;5103873;28;20452;-83
2023/06/12 00:05:58;;;;;;;14.50;7.83;;;19.70;63.80;;;;;;5095760;28;20445;-83
2023/06/12 00:08:28;;;;;;;16.10;8.87;;;19.80;63.70;;;;;;5110137;28;20865;-81
2023/06/12 00:10:57;;;;;;;11.93;8.40;;;19.70;63.70;;;;;;5087468;28;20454;-81
2023/06/12 00:13:25;;;;;;;10.23;7.93;;;19.70;63.70;;;;;;5103095;28;20475;-82
2023/06/12 00:15:54;;;;;;;13.70;9.13;;;19.70;63.80;;;;;;5090003;28;20481;-80
2023/06/12 00:18:22;;;;;;;11.30;7.93;;;19.70;63.90;;;;;;5106415;28;20538;-84
2023/06/12 00:20:50;;;;;;;10.03;8.10;;;19.80;63.80;;;;;;5104261;28;20459;-84
2023/06/12 00:23:19;;;;;;;11.83;8.30;;;19.80;63.80;;;;;;5099197;28;20458;-81
2023/06/12 00:25:47;;;;;;;12.43;7.90;;;19.90;63.80;;;;;;5097958;28;20443;-81
2023/06/12 00:28:15;;;;;;;11.83;9.00;;;20.00;63.70;;;;;;5095403;28;20932;-83
2023/06/12 00:30:43;;;;;;;11.33;8.43;;;20.00;63.60;;;;;;5083247;28;20485;-81
2023/06/12 00:33:11;;;;;;;10.70;8.00;;;20.00;63.60;;;;;;5086827;28;20452;-82
2023/06/12 00:35:39;;;;;;;10.33;7.97;;;20.10;63.50;;;;;;5087404;28;20521;-85
2023/06/12 00:38:07;;;;;;;13.07;7.87;;;20.10;63.40;;;;;;5105875;28;20479;-83
2023/06/12 00:40:37;;;;;;;14.63;8.73;;;20.10;63.30;;;;;;5086488;28;20968;-84
2023/06/12 00:43:06;;;;;;;11.00;8.73;;;20.10;63.30;;;;;;5107418;28;20481;-80
2023/06/12 00:45:34;;;;;;;10.67;7.93;;;20.10;63.20;;;;;;5084528;28;20453;-80
2023/06/12 00:48:03;;;;;;;14.63;8.77;;;20.00;63.10;;;;;;5086490;28;20453;-80
2023/06/12 00:50:33;;;;;;;11.90;8.90;;;20.00;63.10;;;;;;5093079;28;20510;-84
2023/06/12 00:53:01;;;;;;;11.60;8.80;;;19.90;63.10;;;;;;5111617;28;20882;-82
2023/06/12 00:55:30;;;;;;;10.80;8.60;;;19.90;63.20;;;;;;5112946;28;20474;-82
2023/06/12 00:58:02;;;;;;;12.13;8.23;;;19.90;63.30;;;;;;5112035;28;20455;-83
2023/06/12 01:00:31;;;;;;;10.20;8.10;;;19.90;63.20;;;;;;5102531;28;20505;-81
2023/06/12 01:03:05;;;;;;;10.57;8.10;;;19.90;63.20;;;;;;5108013;28;20450;-81
2023/06/12 01:05:36;;;;;;;11.10;8.47;;;19.80;63.20;;;;;;5096873;28;20448;-81
2023/06/12 01:08:29;;;;;;;10.17;8.10;;;19.80;63.20;;;;;;5084906;28;20452;-81
2023/06/12 01:11:03;;;;;;;10.07;8.20;;;19.80;63.20;;;;;;5101080;28;20551;-81
2023/06/12 01:13:33;;;;;;;10.57;8.13;;;19.70;63.30;;;;;;5082112;28;20542;-85
2023/06/12 01:16:01;;;;;;;11.23;8.37;;;19.70;63.30;;;;;;5093324;28;20552;-81
2023/06/12 01:18:32;;;;;;;11.63;8.97;;;19.60;63.40;;;;;;5089555;28;20492;-80
2023/06/12 01:21:09;;;;;;;10.23;8.20;;;19.60;63.40;;;;;;5083608;28;21212;-84
2023/06/12 01:24:01;;;;;;;11.10;8.17;;;19.50;63.50;;;;;;5085468;28;20872;-82
2023/06/12 01:26:53;;;;;;;11.20;8.40;;;19.50;63.50;;;;;;5102730;28;20454;-80
2023/06/12 01:29:46;;;;;;;12.33;8.40;;;19.50;63.50;;;;;;5088488;28;20555;-81
2023/06/12 01:32:16;;;;;;;12.37;8.80;;;19.40;63.50;;;;;;5103054;28;20483;-83
2023/06/12 01:34:51;;;;;;;12.60;7.93;;;19.30;63.50;;;;;;5090702;28;20454;-82
2023/06/12 01:37:29;;;;;;;11.67;8.17;;;19.30;63.60;;;;;;5099215;28;20465;-84
2023/06/12 01:39:59;;;;;;;11.80;9.37;;;19.30;63.60;;;;;;5092354;28;20535;-82
2023/06/12 01:42:29;;;;;;;11.33;8.77;;;19.30;63.60;;;;;;5084555;28;20546;-82
2023/06/12 01:44:57;;;;;;;13.13;7.93;;;19.20;63.70;;;;;;5092358;28;20479;-81
2023/06/12 01:47:27;;;;;;;11.80;8.37;;;19.20;63.70;;;;;;5095209;28;20952;-82
2023/06/12 01:49:55;;;;;;;9.13;7.70;;;19.20;63.80;;;;;;5089848;28;20513;-85
2023/06/12 01:52:23;;;;;;;9.83;7.87;;;19.20;63.80;;;;;;5099425;28;20845;-85
2023/06/12 01:54:52;;;;;;;13.87;9.80;;;19.10;63.80;;;;;;5096926;28;20538;-83
2023/06/12 01:57:21;;;;;;;13.40;9.60;;;19.10;63.90;;;;;;5097477;28;20524;-84
2023/06/12 01:59:51;;;;;;;13.80;9.97;;;19.10;64.00;;;;;;5086326;28;20466;-83
2023/06/12 02:02:21;;;;;;;12.03;8.33;;;19.10;64.00;;;;;;5101007;28;20816;-84
2023/06/12 02:04:51;;;;;;;11.37;8.80;;;19.00;64.20;;;;;;5088710;28;20473;-86
2023/06/12 02:07:20;;;;;;;11.80;8.80;;;19.00;64.20;;;;;;5083845;28;20454;-83
2023/06/12 02:09:49;;;;;;;14.00;9.13;;;19.00;64.30;;;;;;5088024;28;20550;-85
2023/06/12 02:12:17;;;;;;;11.53;8.73;;;19.00;64.30;;;;;;5100977;28;20465;-82
2023/06/12 02:14:47;;;;;;;10.80;8.60;;;19.00;64.30;;;;;;5091468;28;20447;-83
2023/06/12 02:17:17;;;;;;;13.40;8.50;;;19.00;64.30;;;;;;5082502;28;20467;-84
2023/06/12 02:19:47;;;;;;;11.30;8.70;;;19.10;64.30;;;;;;5087481;28;20456;-83
2023/06/12 02:22:17;;;;;;;11.37;9.40;;;19.00;64.30;;;;;;5104088;28;21150;-84
2023/06/12 02:24:46;;;;;;;10.27;8.40;;;19.00;64.30;;;;;;5083516;28;20451;-86
2023/06/12 02:27:14;;;;;;;12.80;9.93;;;19.00;64.30;;;;;;5089405;28;20451;-85
2023/06/12 02:29:42;;;;;;;12.27;8.50;;;18.90;64.30;;;;;;5092004;28;20456;-82
2023/06/12 02:32:12;;;;;;;14.60;8.97;;;18.90;64.30;;;;;;5089700;28;20467;-86
2023/06/12 02:34:40;;;;;;;15.53;9.43;;;18.80;64.40;;;;;;5095583;28;20528;-84
2023/06/12 02:37:10;;;;;;;13.03;8.77;;;18.80;64.40;;;;;;5084333;28;20463;-84
2023/06/12 02:39:43;;;;;;;13.07;8.90;;;18.80;64.50;;;;;;5097500;28;20481;-85
2023/06/12 02:42:12;;;;;;;12.00;9.33;;;18.70;64.60;;;;;;5092120;28;20864;-82
2023/06/12 02:44:40;;;;;;;13.80;9.00;;;18.70;64.60;;;;;;5092610;28;20561;-85
2023/06/12 02:47:08;;;;;;;13.47;8.57;;;18.70;64.70;;;;;;5092810;28;20449;-83
2023/06/12 02:49:44;;;;;;;12.37;8.60;;;18.70;64.80;;;;;;5093894;28;20478;-84
2023/06/12 02:52:17;;;;;;;17.63;9.67;;;18.70;64.80;;;;;;5099386;28;20511;-84
2023/06/12 02:54:47;;;;;;;12.80;8.77;;;18.70;64.80;;;;;;5104694;28;20447;-85
2023/06/12 02:57:15;;;;;;;10.50;8.40;;;18.70;64.80;;;;;;5102909;28;20468;-83
2023/06/12 02:59:43;;;;;;;11.43;7.93;;;18.70;64.70;;;;;;5091619;28;20455;-80
2023/06/12 03:02:22;;;;;;;11.83;8.13;;;18.70;64.70;;;;;;5100753;28;20527;-85
2023/06/12 03:04:52;;;;;;;11.70;8.60;;;18.60;64.70;;;;;;5094099;28;20497;-82
2023/06/12 03:07:23;;;;;;;13.60;9.40;;;18.60;64.70;;;;;;5094776;28;20462;-83
2023/06/12 03:09:52;;;;;;;14.50;10.20;;;18.50;64.80;;;;;;5098352;28;20809;-85
2023/06/12 03:12:20;;;;;;;17.93;9.40;;;18.40;64.80;;;;;;5087730;28;20503;-82
2023/06/12 03:14:50;;;;;;;12.10;8.97;;;18.40;65.00;;;;;;5094252;28;20493;-85
2023/06/12 03:17:20;;;;;;;11.60;9.03;;;18.40;65.00;;;;;;5107392;28;20461;-83
2023/06/12 03:19:48;;;;;;;18.33;9.90;;;18.30;65.10;;;;;;5091429;28;20952;-82
2023/06/12 03:22:16;;;;;;;11.50;8.00;;;18.30;65.20;;;;;;5089829;28;20465;-85
2023/06/12 03:24:44;;;;;;;12.90;9.33;;;18.20;65.30;;;;;;5109128;28;20817;-83
2023/06/12 03:27:14;;;;;;;12.40;8.53;;;18.20;65.30;;;;;;5100354;28;20484;-86
2023/06/12 03:29:42;;;;;;;13.50;8.97;;;18.20;65.40;;;;;;5106937;28;20463;-80
2023/06/12 03:32:11;;;;;;;15.97;9.80;;;18.20;65.40;;;;;;5083522;28;20480;-82
2023/06/12 03:34:47;;;;;;;13.50;8.47;;;18.20;65.40;;;;;;5091209;28;20514;-83
2023/06/12 03:37:15;;;;;;;10.23;7.97;;;18.20;65.40;;;;;;5107635;28;20540;-85
2023/06/12 03:39:43;;;;;;;14.43;8.30;;;18.20;65.40;;;;;;5082613;28;20450;-87
2023/06/12 03:42:13;;;;;;;13.80;8.93;;;18.20;65.50;;;;;;5086801;28;20531;-82
2023/06/12 03:44:49;;;;;;;12.87;8.90;;;18.20;65.50;;;;;;5090710;28;20542;-86
2023/06/12 03:47:17;;;;;;;17.30;8.67;;;18.20;65.50;;;;;;5102620;28;20453;-82
2023/06/12 03:49:47;;;;;;;14.77;9.17;;;18.20;65.50;;;;;;5090543;28;20447;-83
2023/06/12 03:52:16;;;;;;;13.30;9.40;;;18.10;65.50;;;;;;5090889;28;20864;-83
2023/06/12 03:54:45;;;;;;;13.17;9.23;;;18.10;65.60;;;;;;5089286;28;20458;-80
2023/06/12 03:57:14;;;;;;;12.43;8.40;;;18.10;65.60;;;;;;5080783;28;20469;-80
2023/06/12 03:59:42;;;;;;;14.57;10.43;;;18.10;65.70;;;;;;5086462;28;20513;-80
2023/06/12 04:02:10;;;;;;;11.93;8.60;;;18.10;65.80;;;;;;5085836;28;20488;-83
2023/06/12 04:04:38;;;;;;;12.93;9.57;;;18.10;65.80;;;;;;5104618;28;20844;-80
2023/06/12 04:07:07;;;;;;;10.60;8.03;;;18.20;65.90;;;;;;5093726;28;20450;-81
2023/06/12 04:09:35;;;;;;;13.77;9.30;;;18.20;65.90;;;;;;5081775;28;20492;-82
2023/06/12 04:12:04;;;;;;;12.50;9.07;;;18.30;66.00;;;;;;5085896;28;20467;-80
2023/06/12 04:14:34;;;;;;;15.30;8.47;;;18.30;66.00;;;;;;5085175;28;20490;-82
2023/06/12 04:17:03;;;;;;;12.10;8.80;;;18.40;66.00;;;;;;5088354;28;20466;-81
2023/06/12 04:19:32;;;;;;;15.20;9.20;;;18.50;66.00;;;;;;5111040;28;21027;-81
2023/06/12 04:22:01;;;;;;;12.40;8.43;;;18.60;66.10;;;;;;5104660;28;20993;-83
2023/06/12 04:24:32;;;;;;;12.13;8.50;;;18.70;66.10;;;;;;5088804;28;20453;-82
2023/06/12 04:27:01;;;;;;;13.50;8.83;;;18.80;66.00;;;;;;5101011;28;20448;-81
2023/06/12 04:29:32;;;;;;;13.37;9.00;;;18.90;65.90;;;;;;5091274;28;20508;-82
2023/06/12 04:32:01;;;;;;;13.40;9.30;;;19.00;65.90;;;;;;5085894;28;20485;-81
2023/06/12 04:34:29;;;;;;;15.33;8.60;;;19.10;65.90;;;;;;5107621;28;20457;-82
2023/06/12 04:36:58;;;;;;;10.73;8.13;;;19.20;65.90;;;;;;5088876;28;20512;-82
2023/06/12 04:39:29;;;;;;;10.40;8.63;;;19.30;65.90;;;;;;5099287;28;20484;-80
2023/06/12 04:41:57;;;;;;;12.40;9.00;;;19.40;65.90;;;;;;5088010;28;20454;-82
2023/06/12 04:44:31;;;;;;;15.53;9.93;;;19.50;66.00;;;;;;5103406;28;20502;-80
2023/06/12 04:47:02;;;;;;;14.70;9.50;;;19.60;65.90;;;;;;5089095;28;20981;-82
2023/06/12 04:49:30;;;;;;;11.97;8.53;;;19.70;65.90;;;;;;5092473;28;20985;-81
2023/06/12 04:52:00;;;;;;;10.87;8.73;;;19.80;65.90;;;;;;5084462;28;20544;-80
2023/06/12 04:54:30;;;;;;;14.33;9.27;;;19.90;65.80;;;;;;5100902;28;20453;-81
2023/06/12 04:56:59;;;;;;;10.67;8.40;;;20.00;65.70;;;;;;5093821;28;20483;-81
2023/06/12 04:59:27;;;;;;;11.10;8.80;;;20.10;65.70;;;;;;5090873;28;20457;-82
2023/06/12 05:01:57;;;;;;;14.13;9.37;;;20.30;65.60;;;;;;5092763;28;20475;-80
2023/06/12 05:04:26;;;;;;;14.00;9.37;;;20.40;65.60;;;;;;5096004;28;20457;-83
2023/06/12 05:06:56;;;;;;;13.37;10.23;;;20.50;65.60;;;;;;5084863;28;21155;-81
2023/06/12 05:09:24;;;;;;;14.47;9.50;;;20.60;65.50;;;;;;5083511;28;21028;-82
2023/06/12 05:11:52;;;;;;;11.63;9.33;;;20.70;65.50;;;;;;5086387;28;20452;-83
2023/06/12 05:14:24;;;;;;;13.33;9.60;;;20.80;65.50;;;;;;5093911;28;20536;-81
2023/06/12 05:17:00;;;;;;;13.60;9.43;;;20.90;65.50;;;;;;5100986;28;20483;-81
2023/06/12 05:19:30;;;;;;;14.03;9.63;;;21.00;65.50;;;;;;5078317;28;20475;-81
2023/06/12 05:21:58;;;;;;;12.10;9.20;;;21.10;65.50;;;;;;5088900;28;20466;-82
2023/06/12 05:24:26;;;;;;;14.50;8.87;;;21.30;65.40;;;;;;5093715;28;20849;-81
2023/06/12 05:26:54;;;;;;;15.93;9.53;;;21.40;65.30;;;;;;5085500;28;21008;-81
2023/06/12 05:29:22;;;;;;;11.83;8.53;;;21.60;65.20;;;;;;5106139;28;21014;-80
2023/06/12 05:31:50;;;;;;;13.53;8.90;;;21.80;65.30;;;;;;5077219;28;20559;-83
2023/06/12 05:34:18;;;;;;;11.13;8.57;;;22.00;65.40;;;;;;5082185;28;20618;-80
2023/06/12 05:36:54;;;;;;;12.57;9.33;;;22.20;65.60;;;;;;5091193;28;20933;-83
2023/06/12 05:39:26;;;;;;;10.67;8.37;;;22.70;65.30;;;;;;5086010;28;20499;-79
2023/06/12 05:41:54;;;;;;;12.73;8.10;;;23.40;64.40;;;;;;5088598;28;20452;-80
2023/06/12 05:44:22;;;;;;;10.63;8.30;;;24.30;62.70;;;;;;5089568;28;20445;-81
2023/06/12 05:46:51;;;;;;;10.67;7.57;;;25.30;61.10;;;;;;5078226;28;20452;-83
2023/06/12 05:49:20;;;;;;;11.37;8.40;;;26.10;59.70;;;;;;5083284;28;20464;-82
2023/06/12 05:51:50;;;;;;;12.33;8.77;;;26.90;58.40;;;;;;5087701;28;20475;-83
2023/06/12 05:54:20;;;;;;;11.10;7.80;;;27.70;57.10;;;;;;5106582;28;20440;-83
2023/06/12 05:56:49;;;;;;;13.77;8.70;;;28.30;56.10;;;;;;5081659;28;20452;-83
2023/06/12 05:59:19;;;;;;;10.17;7.17;;;28.90;55.20;;;;;;5087937;28;20507;-82
2023/06/12 06:01:47;;;;;;;10.83;7.60;;;29.30;54.10;;;;;;5087164;28;20495;-83
2023/06/12 06:04:16;;;;;;;10.70;7.90;;;29.70;53.60;;;;;;5089448;28;20453;-81
2023/06/12 06:06:46;;;;;;;10.23;7.63;;;30.20;52.70;;;;;;5095621;28;20472;-82
2023/06/12 06:09:15;;;;;;;10.40;7.73;;;30.70;51.90;;;;;;5105472;28;20522;-83
2023/06/12 06:11:47;;;;;;;9.63;7.47;;;30.80;51.10;;;;;;5091337;28;20551;-82
2023/06/12 06:14:18;;;;;;;9.40;7.50;;;30.40;50.90;;;;;;5101721;28;20903;-80
2023/06/12 06:16:46;;;;;;;8.80;7.53;;;29.90;51.20;;;;;;5104256;28;20449;-83
2023/06/12 06:19:28;;;;;;;10.07;7.50;;;29.50;51.10;;;;;;5105564;28;20571;-83
2023/06/12 06:21:58;;;;;;;15.10;7.40;;;29.00;51.40;;;;;;5088695;28;20459;-80
2023/06/12 06:24:27;;;;;;;11.93;7.87;;;28.60;51.80;;;;;;5088025;28;20452;-81
2023/06/12 06:26:59;;;;;;;10.60;7.20;;;28.10;52.10;;;;;;5111707;28;20451;-82
2023/06/12 06:29:27;;;;;;;11.30;7.43;;;27.70;52.60;;;;;;5084631;28;20497;-83
2023/06/12 06:31:56;;;;;;;15.67;8.80;;;27.30;52.90;;;;;;5087618;28;20465;-82
2023/06/12 06:34:25;;;;;;;9.50;7.40;;;26.90;53.30;;;;;;5093167;28;20449;-83
2023/06/12 06:36:56;;;;;;;10.50;7.60;;;26.50;53.40;;;;;;5094923;28;20526;-83
2023/06/12 06:39:24;;;;;;;11.40;8.00;;;26.10;54.00;;;;;;5105798;27;20522;-81
2023/06/12 06:41:52;;;;;;;13.63;7.97;;;25.80;54.30;;;;;;5102652;28;20450;-79
2023/06/12 06:44:21;;;;;;;12.40;8.23;;;25.50;54.30;;;;;;5108627;28;20464;-81
2023/06/12 06:46:51;;;;;;;11.67;8.33;;;25.30;54.40;;;;;;5094252;28;20846;-83
2023/06/12 06:49:22;;;;;;;11.90;8.30;;;25.10;54.60;;;;;;5090366;28;20513;-82
2023/06/12 06:51:50;;;;;;;11.53;7.63;;;24.90;54.70;;;;;;5111968;28;20444;-82
2023/06/12 06:54:19;;;;;;;12.63;8.10;;;24.70;54.90;;;;;;5096946;28;20460;-80
2023/06/12 06:56:48;;;;;;;13.53;8.27;;;24.50;54.90;;;;;;5091955;28;20820;-81
2023/06/12 06:59:17;;;;;;;11.77;9.10;;;24.30;55.30;;;;;;5091525;28;20552;-82
2023/06/12 07:01:47;;;;;;;13.43;7.97;;;24.20;55.50;;;;;;5094160;28;20559;-80
2023/06/12 07:04:17;;;;;;;14.43;9.60;;;24.10;55.70;;;;;;5090020;28;20460;-80
2023/06/12 07:06:46;;;;;;;15.53;8.30;;;24.00;55.90;;;;;;5105849;28;20460;-83
2023/06/12 07:09:14;;;;;;;14.30;8.30;;;23.90;56.10;;;;;;5094461;28;20485;-83
2023/06/12 07:11:42;;;;;;;11.30;8.80;;;23.90;56.20;;;;;;5096226;28;20534;-81
2023/06/12 07:14:10;;;;;;;15.93;9.10;;;23.80;56.30;;;;;;5097433;28;20551;-79
2023/06/12 07:16:38;;;;;;;18.33;8.80;;;23.80;56.50;;;;;;5084881;28;20472;-81
2023/06/12 07:19:09;;;;;;;13.23;8.33;;;23.80;56.60;;;;;;5074282;28;20509;-83
2023/06/12 07:21:38;;;;;;;10.70;8.23;;;23.80;56.70;;;;;;5082501;28;20538;-81
2023/06/12 07:24:08;;;;;;;14.73;7.60;;;23.80;56.80;;;;;;5109865;28;20492;-80
2023/06/12 07:26:36;;;;;;;10.17;7.17;;;23.80;56.80;;;;;;5106545;27;20510;-80
2023/06/12 07:29:06;;;;;;;11.47;8.47;;;23.80;56.80;;;;;;5091094;28;20456;-82
2023/06/12 07:31:35;;;;;;;11.23;8.23;;;23.80;56.80;;;;;;5087825;28;20554;-81
2023/06/12 07:34:03;;;;;;;12.70;8.70;;;23.80;56.80;;;;;;5104388;28;20456;-81
2023/06/12 07:36:37;;;;;;;11.80;7.60;;;23.80;56.90;;;;;;5080878;28;20463;-81
2023/06/12 07:39:06;;;;;;;11.87;8.50;;;23.90;56.90;;;;;;5091630;28;20475;-82
2023/06/12 07:41:38;;;;;;;11.93;8.17;;;23.90;56.90;;;;;;5091917;28;20941;-82
2023/06/12 07:44:07;;;;;;;13.40;9.07;;;23.90;56.90;;;;;;5082142;28;20514;-81
2023/06/12 07:46:36;;;;;;;10.70;7.57;;;23.90;56.90;;;;;;5098663;28;20455;-82
2023/06/12 07:49:07;;;;;;;11.67;8.53;;;23.90;56.90;;;;;;5088048;28;20449;-80
2023/06/12 07:51:37;;;;;;;12.50;8.60;;;24.00;56.80;;;;;;5079123;28;20471;-82
2023/06/12 07:54:05;;;;;;;14.90;8.60;;;24.00;56.90;;;;;;5088117;28;21020;-80
2023/06/12 07:56:35;;;;;;;12.73;8.37;;;24.00;56.90;;;;;;5088815;28;20463;-81
2023/06/12 07:59:09;;;;;;;14.63;8.57;;;24.00;56.90;;;;;;5084575;28;20997;-80
2023/06/12 08:01:38;;;;;;;10.70;8.40;;;24.10;56.90;;;;;;5086580;28;20475;-83
2023/06/12 08:04:10;;;;;;;11.37;7.93;;;24.10;56.90;;;;;;5090514;28;20458;-81
2023/06/12 08:06:42;;;;;;;13.50;9.13;;;24.10;56.80;;;;;;5089485;28;20846;-82
2023/06/12 08:09:10;;;;;;;11.13;8.17;;;24.20;56.70;;;;;;5092499;28;20845;-81
2023/06/12 08:11:39;;;;;;;13.57;9.80;;;24.20;56.80;;;;;;5083288;28;20470;-82
2023/06/12 08:14:08;;;;;;;12.77;9.47;;;24.20;56.90;;;;;;5091513;28;20448;-82
2023/06/12 08:16:37;;;;;;;11.00;8.40;;;24.20;56.80;;;;;;5092971;28;20463;-80
2023/06/12 08:19:05;;;;;;;14.70;10.10;;;24.30;56.80;;;;;;5096047;28;20511;-82
2023/06/12 08:21:36;;;;;;;17.37;8.73;;;24.30;56.60;;;;;;5090273;28;20923;-81
2023/06/12 08:24:07;;;;;;;11.23;7.40;;;24.30;56.50;;;;;;5086995;28;20460;-81
2023/06/12 08:26:36;;;;;;;12.40;7.67;;;24.30;56.40;;;;;;5102087;27;20467;-81
2023/06/12 08:29:04;;;;;;;9.23;6.93;;;24.40;56.20;;;;;;5095826;28;20458;-82
2023/06/12 08:31:36;;;;;;;11.40;6.83;;;24.40;55.90;;;;;;5083981;28;20562;-80
2023/06/12 08:34:05;;;;;;;14.93;7.73;;;24.40;55.30;;;;;;5089460;28;20464;-82
2023/06/12 08:36:35;;;;;;;9.73;7.30;;;24.50;55.00;;;;;;5084000;28;20452;-83
2023/06/12 08:39:06;;;;;;;18.47;7.60;;;24.50;54.70;;;;;;5088477;28;20462;-83
2023/06/12 08:41:42;;;;;;;10.27;7.10;;;24.50;54.50;;;;;;5089819;28;20467;-84
2023/06/12 08:44:10;;;;;;;12.97;8.70;;;24.60;54.50;;;;;;5097442;28;20997;-83
2023/06/12 08:46:43;;;;;;;11.20;7.70;;;24.60;54.30;;;;;;5080488;28;21272;-83
2023/06/12 08:49:12;;;;;;;15.40;7.10;;;24.70;54.10;;;;;;5091546;28;20505;-80
2023/06/12 08:51:42;;;;;;;16.67;8.47;;;24.70;54.10;;;;;;5099222;28;20452;-82
2023/06/12 08:54:12;;;;;;;15.33;6.70;;;24.60;53.90;;;;;;5099574;28;20449;-82
2023/06/12 08:56:43;;;;;;;10.90;7.30;;;24.70;53.50;;;;;;5104588;28;21001;-82
2023/06/12 08:59:11;;;;;;;10.50;7.20;;;24.70;53.30;;;;;;5082178;28;20492;-80
2023/06/12 09:01:45;;;;;;;10.30;7.10;;;24.70;53.20;;;;;;5089850;28;20461;-80
2023/06/12 09:04:37;;;;;;;10.97;7.40;;;24.70;53.10;;;;;;5108355;28;20447;-79
2023/06/12 09:07:05;;;;;;;13.50;7.10;;;24.80;53.00;;;;;;5099635;28;20468;-80
2023/06/12 09:09:39;;;;;;;11.80;7.63;;;24.80;53.00;;;;;;5085742;28;20487;-83
2023/06/12 09:12:12;;;;;;;13.37;7.40;;;24.80;53.10;;;;;;5108699;28;20547;-80
2023/06/12 09:14:41;;;;;;;12.90;6.87;;;24.90;52.80;;;;;;5088684;28;20480;-79
2023/06/12 09:17:09;;;;;;;15.70;7.97;;;25.00;52.40;;;;;;5083106;28;20819;-83
2023/06/12 09:19:41;;;;;;;9.80;6.90;;;25.00;52.30;;;;;;5088248;28;20529;-81
2023/06/12 09:22:10;;;;;;;11.03;7.10;;;25.00;51.90;;;;;;5105535;28;20555;-82
2023/06/12 09:24:40;;;;;;;9.67;6.93;;;24.90;52.10;;;;;;5103109;28;20487;-80
2023/06/12 09:27:11;;;;;;;12.90;6.77;;;25.00;51.60;;;;;;5086966;28;20463;-84
2023/06/12 09:29:40;;;;;;;16.63;6.77;;;25.00;51.30;;;;;;5094473;28;20996;-81
2023/06/12 09:32:16;;;;;;;17.23;6.80;;;25.00;51.40;;;;;;5101030;28;20489;-82
2023/06/12 09:34:46;;;;;;;10.90;7.43;;;25.00;51.40;;;;;;5106057;28;20476;-83
2023/06/12 09:37:16;;;;;;;9.83;7.43;;;25.10;51.50;;;;;;5105671;28;20804;-81
2023/06/12 09:39:45;;;;;;;11.80;6.90;;;25.10;51.60;;;;;;5099265;28;20873;-82
2023/06/12 09:42:21;;;;;;;11.40;7.03;;;25.20;51.60;;;;;;5093967;28;20456;-84
2023/06/12 09:44:49;;;;;;;9.37;5.93;;;25.30;51.50;;;;;;5108007;28;20451;-80
2023/06/12 09:47:17;;;;;;;12.93;6.47;;;25.30;51.20;;;;;;5086111;28;20821;-81
2023/06/12 09:49:46;;;;;;;9.13;6.53;;;25.30;50.80;;;;;;5093677;28;20452;-84
2023/06/12 09:52:16;;;;;;;11.57;6.07;;;25.30;50.60;;;;;;5106898;28;20479;-83
2023/06/12 09:54:47;;;;;;;10.27;6.20;;;25.30;50.50;;;;;;5090838;28;20480;-83
2023/06/12 09:57:20;;;;;;;13.70;6.60;;;25.40;50.10;;;;;;5103801;28;20456;-82
2023/06/12 09:59:49;;;;;;;9.83;6.10;;;25.40;49.90;;;;;;5110071;28;20814;-83
2023/06/12 10:02:18;;;;;;;8.40;6.00;;;25.50;49.70;;;;;;5089076;28;20467;-80
2023/06/12 10:04:52;;;;;;;8.90;5.87;;;25.50;49.60;;;;;;5101010;28;20482;-81
2023/06/12 10:07:26;;;;;;;9.20;5.60;;;25.50;49.30;;;;;;5104497;28;20539;-80
2023/06/12 10:09:56;;;;;;;9.37;6.00;;;25.60;48.80;;;;;;5092909;28;20473;-82
2023/06/12 10:12:25;;;;;;;9.13;5.33;;;25.60;48.30;;;;;;5091474;28;20470;-83
2023/06/12 10:14:54;;;;;;;6.50;4.03;;;25.60;47.50;;;;;;5095457;28;20447;-81
2023/06/12 10:17:23;;;;;;;8.90;5.17;;;25.60;46.40;;;;;;5094108;28;20456;-79
2023/06/12 10:19:52;;;;;;;9.50;6.00;;;25.70;46.80;;;;;;5088928;28;20513;-80
2023/06/12 10:22:20;;;;;;;9.30;4.93;;;25.70;47.10;;;;;;5104129;28;20476;-82
2023/06/12 10:24:48;;;;;;;11.17;5.57;;;25.80;47.00;;;;;;5103317;28;20933;-81
2023/06/12 10:27:19;;;;;;;10.17;6.13;;;25.80;46.60;;;;;;5099808;28;20458;-81
2023/06/12 10:29:56;;;;;;;9.20;5.90;;;25.80;46.50;;;;;;5095934;28;20551;-82
2023/06/12 10:32:24;;;;;;;12.50;6.23;;;25.80;46.50;;;;;;5107475;28;20475;-81
2023/06/12 10:34:55;;;;;;;8.50;5.60;;;25.70;46.60;;;;;;5092928;28;20458;-83
2023/06/12 10:37:24;;;;;;;8.50;5.90;;;25.80;46.50;;;;;;5110337;28;20540;-82
2023/06/12 10:40:12;;;;;;;9.33;6.33;;;25.80;46.60;;;;;;5092153;28;20463;-80
2023/06/12 10:42:47;;;;;;;8.40;5.53;;;25.80;46.60;;;;;;5102918;28;20448;-81
2023/06/12 10:45:18;;;;;;;13.27;6.33;;;25.80;46.80;;;;;;5107182;28;20475;-81
2023/06/12 10:48:11;;;;;;;8.30;6.00;;;25.80;46.70;;;;;;5090873;28;20453;-81
2023/06/12 10:50:44;;;;;;;10.57;7.47;;;25.90;47.10;;;;;;5099415;28;20440;-84
2023/06/12 10:53:14;;;;;;;12.10;6.70;;;25.90;47.70;;;;;;5105068;28;20443;-82
2023/06/12 10:55:43;;;;;;;9.20;6.47;;;25.90;47.90;;;;;;5089993;28;20471;-82
2023/06/12 10:58:14;;;;;;;12.93;7.07;;;26.00;47.80;;;;;;5104481;28;20896;-79
2023/06/12 11:00:47;;;;;;;10.13;6.50;;;26.00;48.10;;;;;;5087857;28;20503;-81
2023/06/12 11:03:18;;;;;;;11.40;7.23;;;26.00;48.00;;;;;;5077919;28;20485;-84
2023/06/12 11:05:48;;;;;;;12.60;7.50;;;26.00;48.00;;;;;;5087556;28;20459;-82
2023/06/12 11:08:17;;;;;;;12.00;7.13;;;26.10;48.00;;;;;;5109657;28;20539;-82
2023/06/12 11:10:45;;;;;;;11.17;6.50;;;26.10;48.20;;;;;;5086140;28;20871;-80
2023/06/12 11:13:14;;;;;;;14.60;7.10;;;26.10;48.40;;;;;;5108830;28;20448;-81
2023/06/12 11:15:44;;;;;;;9.00;6.97;;;26.10;48.50;;;;;;5109953;28;20543;-82
2023/06/12 11:18:13;;;;;;;11.37;7.97;;;26.10;48.60;;;;;;5105779;28;20452;-83
2023/06/12 11:20:42;;;;;;;11.73;6.57;;;26.10;48.60;;;;;;5088025;28;20452;-82
2023/06/12 11:23:10;;;;;;;11.63;7.43;;;26.20;48.60;;;;;;5089614;28;21073;-82
2023/06/12 11:25:43;;;;;;;12.37;8.00;;;26.20;48.40;;;;;;5108695;28;20988;-83
2023/06/12 11:28:14;;;;;;;10.63;6.93;;;26.20;48.50;;;;;;5108599;28;20710;-83
2023/06/12 11:30:47;;;;;;;11.73;7.60;;;26.20;48.70;;;;;;5084261;28;20518;-81
2023/06/12 11:33:35;;;;;;;9.67;7.00;;;26.20;48.70;;;;;;5085201;28;20453;-81
2023/06/12 11:36:04;;;;;;;11.27;6.83;;;26.30;48.90;;;;;;5092821;28;20542;-83
2023/06/12 11:38:32;;;;;;;9.20;7.23;;;26.30;48.80;;;;;;5097958;28;20988;-82
2023/06/12 11:41:03;;;;;;;9.70;7.80;;;26.30;48.80;;;;;;5107131;28;20961;-81
2023/06/12 11:43:33;;;;;;;10.43;7.40;;;26.30;49.00;;;;;;5110241;28;20483;-82
2023/06/12 11:46:03;;;;;;;10.93;7.23;;;26.40;48.90;;;;;;5107465;28;20523;-82
2023/06/12 11:48:32;;;;;;;10.57;7.20;;;26.40;49.00;;;;;;5106319;28;20509;-81
2023/06/12 11:51:03;;;;;;;8.97;6.67;;;26.50;48.90;;;;;;5085753;28;20458;-82
2023/06/12 11:53:32;;;;;;;11.00;7.30;;;26.40;49.00;;;;;;5089746;28;20456;-82
2023/06/12 11:56:04;;;;;;;10.20;6.67;;;26.40;48.90;;;;;;5110261;28;20447;-80
2023/06/12 11:58:52;;;;;;;9.97;6.90;;;26.50;48.60;;;;;;5105625;28;20451;-81
2023/06/12 12:01:23;;;;;;;13.23;6.47;;;26.50;48.60;;;;;;5081924;28;20570;-80
2023/06/12 12:04:09;;;;;;;12.07;6.00;;;26.60;48.70;;;;;;5104163;28;20490;-82
2023/06/12 12:06:57;;;;;;;12.50;6.10;;;26.60;48.60;;;;;;5106937;28;20458;-81
2023/06/12 12:09:27;;;;;;;12.23;7.00;;;26.70;48.00;;;;;;5107236;28;20460;-80
2023/06/12 12:12:10;;;;;;;7.87;5.87;;;26.70;48.00;;;;;;5080378;28;20528;-82
2023/06/12 12:17:36;;;;;;;11.83;7.40;;;26.90;48.10;;;;;;5094217;28;20555;-82
2023/06/12 12:20:16;;;;;;;9.53;6.73;;;26.90;48.00;;;;;;5103877;28;20456;-81
2023/06/12 12:22:51;;;;;;;11.70;7.33;;;26.90;47.80;;;;;;5089179;28;20507;-82
2023/06/12 12:25:40;;;;;;;8.80;6.23;;;26.90;47.70;;;;;;5097824;28;20452;-82
2023/06/12 12:28:21;;;;;;;8.50;6.10;;;26.90;47.90;;;;;;5088963;28;20452;-80
2023/06/12 12:30:53;;;;;;;10.17;6.10;;;26.90;48.00;;;;;;5084755;28;20499;-81
2023/06/12 12:33:29;;;;;;;8.47;6.30;;;26.90;47.70;;;;;;5103315;28;20455;-80
2023/06/12 12:36:02;;;;;;;15.57;6.83;;;27.00;47.60;;;;;;5096882;28;20459;-81
2023/06/12 12:38:47;;;;;;;10.27;7.30;;;27.00;47.70;;;;;;5101087;28;21113;-82
2023/06/12 12:41:22;;;;;;;14.90;7.80;;;27.10;47.50;;;;;;5097844;28;20841;-82
2023/06/12 12:44:02;;;;;;;11.50;7.60;;;27.10;47.50;;;;;;5094919;28;20463;-82
2023/06/12 12:46:40;;;;;;;9.40;6.77;;;27.10;47.60;;;;;;5108376;28;20450;-80
2023/06/12 12:49:11;;;;;;;9.67;6.90;;;27.20;47.40;;;;;;5104036;28;20481;-82
2023/06/12 12:51:41;;;;;;;12.30;6.67;;;27.20;47.40;;;;;;5083708;28;20875;-82
2023/06/12 12:54:09;;;;;;;10.23;6.63;;;27.30;47.40;;;;;;5087095;28;20460;-81
2023/06/12 12:56:37;;;;;;;10.20;7.17;;;27.20;47.20;;;;;;5107336;28;20455;-82
2023/06/12 12:59:06;;;;;;;9.43;6.40;;;27.30;47.20;;;;;;5110648;28;20453;-81